Time,TemperatureF,DewpointF,PressureIn,WindDirection,WindDirectionDegrees,WindSpeedMPH,WindSpeedGustMPH,Humidity,HourlyPrecipIn,Conditions,Clouds,dailyrainin,SolarRadiationWatts/m^2,SoftwareType,DateUTC
2013-03-17 00:02:00,29.0,28.0,-100.00,SSW,208,8.0,16.0,97,0.00,,,0.00,0.000000,,2013-03-17 06:02:00,
2013-03-17 00:12:00,29.0,28.0,-100.00,SSW,208,8.0,16.0,97,0.00,,,0.00,0.000000,,2013-03-17 06:12:00,
2013-03-17 00:42:00,28.0,27.0,-100.00,South,173,5.0,13.0,95,0.00,,,0.00,0.000000,,2013-03-17 06:42:00,
2013-03-17 00:52:00,28.0,27.0,-100.00,South,173,5.0,13.0,95,0.00,,,0.00,0.000000,,2013-03-17 06:52:00,
2013-03-17 01:02:00,28.0,27.0,-100.00,South,173,5.0,13.0,95,0.00,,,0.00,0.000000,,2013-03-17 07:02:00,
2013-03-17 01:12:00,28.0,27.0,-100.00,South,173,5.0,13.0,95,0.00,,,0.00,0.000000,,2013-03-17 07:12:00,
2013-03-17 01:42:00,28.0,27.0,-100.00,South,189,5.0,9.0,94,0.00,,,0.00,0.000000,,2013-03-17 07:42:00,
2013-03-17 01:52:00,28.0,27.0,-100.00,South,189,5.0,9.0,94,0.00,,,0.00,0.000000,,2013-03-17 07:52:00,
2013-03-17 02:03:00,28.0,27.0,-100.00,South,189,5.0,9.0,94,0.00,,,0.00,0.000000,,2013-03-17 08:03:00,
2013-03-17 02:13:00,28.0,27.0,-100.00,South,189,5.0,9.0,94,0.00,,,0.00,0.000000,,2013-03-17 08:13:00,
2013-03-17 02:42:00,26.0,25.0,-100.00,SSE,164,6.0,10.0,94,0.00,,,0.00,0.000000,,2013-03-17 08:42:00,
2013-03-17 02:52:00,26.0,25.0,-100.00,SSE,164,6.0,10.0,94,0.00,,,0.00,0.000000,,2013-03-17 08:52:00,
2013-03-17 03:02:00,26.0,25.0,-100.00,SSE,164,6.0,10.0,94,0.00,,,0.00,0.000000,,2013-03-17 09:02:00,
2013-03-17 03:12:00,26.0,25.0,-100.00,SSE,164,6.0,10.0,94,0.00,,,0.00,0.000000,,2013-03-17 09:12:00,
2013-03-17 03:43:00,26.0,25.0,-100.00,South,171,6.0,11.0,94,0.00,,,0.00,0.000000,,2013-03-17 09:43:00,
2013-03-17 03:53:00,26.0,25.0,-100.00,South,171,6.0,11.0,94,0.00,,,0.00,0.000000,,2013-03-17 09:53:00,
2013-03-17 04:03:00,26.0,25.0,-100.00,South,171,6.0,11.0,94,0.00,,,0.00,0.000000,,2013-03-17 10:03:00,
2013-03-17 04:13:00,26.0,25.0,-100.00,South,171,6.0,11.0,94,0.00,,,0.00,0.000000,,2013-03-17 10:13:00,
2013-03-17 04:42:00,27.0,25.0,-100.00,South,181,8.0,15.0,91,0.00,,,0.00,0.000000,,2013-03-17 10:42:00,
2013-03-17 04:52:00,27.0,25.0,-100.00,South,181,8.0,15.0,91,0.00,,,0.00,0.000000,,2013-03-17 10:52:00,
2013-03-17 05:02:00,27.0,25.0,-100.00,South,181,8.0,15.0,91,0.00,,,0.00,0.000000,,2013-03-17 11:02:00,
2013-03-17 05:12:00,27.0,25.0,-100.00,South,181,8.0,15.0,91,0.00,,,0.00,0.000000,,2013-03-17 11:12:00,
2013-03-17 05:43:00,27.0,25.0,-100.00,South,187,9.0,18.0,92,0.00,,,0.00,0.000000,,2013-03-17 11:43:00,
2013-03-17 05:52:00,27.0,25.0,-100.00,South,187,9.0,18.0,92,0.00,,,0.00,0.000000,,2013-03-17 11:52:00,
2013-03-17 06:02:00,27.0,25.0,-100.00,South,187,9.0,18.0,92,0.00,,,0.00,0.000000,,2013-03-17 12:02:00,
2013-03-17 06:12:00,27.0,25.0,-100.00,South,187,9.0,18.0,92,0.00,,,0.00,0.000000,,2013-03-17 12:12:00,
2013-03-17 06:43:00,28.0,26.0,-100.00,SSW,206,8.0,17.0,93,0.00,,,0.00,0.000000,,2013-03-17 12:43:00,
2013-03-17 06:52:00,28.0,26.0,-100.00,SSW,206,8.0,17.0,93,0.00,,,0.00,0.000000,,2013-03-17 12:52:00,
2013-03-17 07:02:00,28.0,26.0,-100.00,SSW,206,8.0,17.0,93,0.00,,,0.00,0.000000,,2013-03-17 13:02:00,
2013-03-17 07:12:00,28.0,26.0,-100.00,SSW,206,8.0,17.0,93,0.00,,,0.00,0.000000,,2013-03-17 13:12:00,
2013-03-17 07:43:00,28.0,27.0,-100.00,SSW,204,5.0,11.0,95,0.00,,,0.00,0.000000,,2013-03-17 13:43:00,
2013-03-17 07:52:00,28.0,27.0,-100.00,SSW,204,5.0,11.0,95,0.00,,,0.00,0.000000,,2013-03-17 13:52:00,
2013-03-17 08:02:00,28.0,27.0,-100.00,SSW,204,5.0,11.0,95,0.00,,,0.00,0.000000,,2013-03-17 14:02:00,
2013-03-17 08:12:00,28.0,27.0,-100.00,SSW,204,5.0,11.0,95,0.00,,,0.00,0.000000,,2013-03-17 14:12:00,
2013-03-17 08:43:00,30.0,29.0,-100.00,SSW,197,8.0,17.0,95,0.00,,,0.00,9.000000,,2013-03-17 14:43:00,
2013-03-17 08:53:00,30.0,29.0,-100.00,SSW,197,8.0,17.0,95,0.00,,,0.00,9.000000,,2013-03-17 14:53:00,
2013-03-17 09:02:00,30.0,29.0,-100.00,SSW,197,8.0,17.0,95,0.00,,,0.00,9.000000,,2013-03-17 15:02:00,
2013-03-17 09:12:00,30.0,29.0,-100.00,SSW,197,8.0,17.0,95,0.00,,,0.00,9.000000,,2013-03-17 15:12:00,
2013-03-17 09:43:00,31.0,29.0,-100.00,South,180,7.0,18.0,94,0.00,,,0.00,31.000000,,2013-03-17 15:43:00,
2013-03-17 09:53:00,31.0,29.0,-100.00,South,180,7.0,18.0,94,0.00,,,0.00,31.000000,,2013-03-17 15:53:00,
2013-03-17 10:03:00,31.0,29.0,-100.00,South,180,7.0,18.0,94,0.00,,,0.00,31.000000,,2013-03-17 16:03:00,
2013-03-17 10:12:00,31.0,29.0,-100.00,South,180,7.0,18.0,94,0.00,,,0.00,31.000000,,2013-03-17 16:12:00,
2013-03-17 10:43:00,34.0,30.0,-100.00,South,191,9.0,14.0,85,0.00,,,0.00,169.000000,,2013-03-17 16:43:00,
2013-03-17 10:52:00,34.0,30.0,-100.00,South,191,9.0,14.0,85,0.00,,,0.00,169.000000,,2013-03-17 16:52:00,
2013-03-17 11:02:00,34.0,30.0,-100.00,South,191,9.0,14.0,85,0.00,,,0.00,169.000000,,2013-03-17 17:02:00,
2013-03-17 11:12:00,34.0,30.0,-100.00,South,191,9.0,14.0,85,0.00,,,0.00,169.000000,,2013-03-17 17:12:00,
2013-03-17 11:42:00,38.0,32.0,-100.00,South,187,7.0,15.0,79,0.02,,,0.02,241.000000,,2013-03-17 17:42:00,
2013-03-17 11:53:00,38.0,32.0,-100.00,South,187,7.0,15.0,79,0.02,,,0.02,241.000000,,2013-03-17 17:53:00,
2013-03-17 12:02:00,38.0,32.0,-100.00,South,187,7.0,15.0,79,0.02,,,0.02,241.000000,,2013-03-17 18:02:00,
2013-03-17 12:12:00,38.0,32.0,-100.00,South,187,7.0,15.0,79,0.02,,,0.02,241.000000,,2013-03-17 18:12:00,
2013-03-17 12:42:00,45.0,33.0,-100.00,SSW,200,6.0,16.0,63,0.14,,,0.16,402.000000,,2013-03-17 18:42:00,
2013-03-17 12:52:00,45.0,33.0,-100.00,SSW,200,6.0,16.0,63,0.14,,,0.16,402.000000,,2013-03-17 18:52:00,
2013-03-17 13:02:00,45.0,33.0,-100.00,SSW,200,6.0,16.0,63,0.14,,,0.16,402.000000,,2013-03-17 19:02:00,
2013-03-17 13:12:00,45.0,33.0,-100.00,SSW,200,6.0,16.0,63,0.14,,,0.16,402.000000,,2013-03-17 19:12:00,
2013-03-17 13:42:00,44.0,36.0,-100.00,SSW,196,7.0,16.0,72,0.14,,,0.30,481.000000,,2013-03-17 19:42:00,
2013-03-17 13:53:00,44.0,36.0,-100.00,SSW,196,7.0,16.0,72,0.14,,,0.30,481.000000,,2013-03-17 19:53:00,
2013-03-17 14:02:00,44.0,36.0,-100.00,SSW,196,7.0,16.0,72,0.14,,,0.30,481.000000,,2013-03-17 20:02:00,
2013-03-17 14:12:00,44.0,36.0,-100.00,SSW,196,7.0,16.0,72,0.14,,,0.30,481.000000,,2013-03-17 20:12:00,
2013-03-17 14:43:00,47.0,35.0,-100.00,WSW,252,5.0,14.0,63,0.00,,,0.30,197.000000,,2013-03-17 20:43:00,
2013-03-17 14:52:00,47.0,35.0,-100.00,WSW,252,5.0,14.0,63,0.00,,,0.30,197.000000,,2013-03-17 20:52:00,
2013-03-17 15:03:00,47.0,35.0,-100.00,WSW,252,5.0,14.0,63,0.00,,,0.30,197.000000,,2013-03-17 21:03:00,
2013-03-17 15:12:00,47.0,35.0,-100.00,WSW,252,5.0,14.0,63,0.00,,,0.30,197.000000,,2013-03-17 21:12:00,
2013-03-17 15:43:00,47.0,31.0,-100.00,WNW,290,19.0,31.0,54,0.00,,,0.30,605.000000,,2013-03-17 21:43:00,
2013-03-17 15:52:00,47.0,31.0,-100.00,WNW,290,19.0,31.0,54,0.00,,,0.30,605.000000,,2013-03-17 21:52:00,
2013-03-17 16:03:00,47.0,31.0,-100.00,WNW,290,19.0,31.0,54,0.00,,,0.30,605.000000,,2013-03-17 22:03:00,
2013-03-17 16:12:00,47.0,31.0,-100.00,WNW,290,19.0,31.0,54,0.00,,,0.30,605.000000,,2013-03-17 22:12:00,
2013-03-17 16:42:00,48.0,26.0,-100.00,WNW,290,12.0,27.0,42,0.00,,,0.30,539.000000,,2013-03-17 22:42:00,
2013-03-17 16:53:00,48.0,26.0,-100.00,WNW,290,12.0,27.0,42,0.00,,,0.30,539.000000,,2013-03-17 22:53:00,
2013-03-17 17:02:00,48.0,26.0,-100.00,WNW,290,12.0,27.0,42,0.00,,,0.30,539.000000,,2013-03-17 23:02:00,
2013-03-17 17:12:00,48.0,26.0,-100.00,WNW,290,12.0,27.0,42,0.00,,,0.30,539.000000,,2013-03-17 23:12:00,
2013-03-17 17:43:00,43.0,22.0,-100.00,NW,326,20.0,30.0,43,0.00,,,0.30,263.000000,,2013-03-17 23:43:00,
2013-03-17 17:53:00,43.0,22.0,-100.00,NW,326,20.0,30.0,43,0.00,,,0.30,263.000000,,2013-03-17 23:53:00,
2013-03-17 18:03:00,43.0,22.0,-100.00,NW,326,20.0,30.0,43,0.00,,,0.30,263.000000,,2013-03-18 00:03:00,
2013-03-17 18:12:00,43.0,22.0,-100.00,NW,326,20.0,30.0,43,0.00,,,0.30,263.000000,,2013-03-18 00:12:00,
2013-03-17 18:42:00,38.0,23.0,-100.00,NW,314,13.0,30.0,54,0.00,,,0.30,99.000000,,2013-03-18 00:42:00,
2013-03-17 18:53:00,38.0,23.0,-100.00,NW,314,13.0,30.0,54,0.00,,,0.30,99.000000,,2013-03-18 00:53:00,
2013-03-17 19:02:00,38.0,23.0,-100.00,NW,314,13.0,30.0,54,0.00,,,0.30,99.000000,,2013-03-18 01:02:00,
2013-03-17 19:12:00,38.0,23.0,-100.00,NW,314,13.0,30.0,54,0.00,,,0.30,99.000000,,2013-03-18 01:12:00,
2013-03-17 19:42:00,35.0,19.0,-100.00,NW,325,17.0,35.0,51,0.00,,,0.30,14.000000,,2013-03-18 01:42:00,
2013-03-17 19:52:00,35.0,19.0,-100.00,NW,325,17.0,35.0,51,0.00,,,0.30,14.000000,,2013-03-18 01:52:00,
2013-03-17 20:02:00,35.0,19.0,-100.00,NW,325,17.0,35.0,51,0.00,,,0.30,14.000000,,2013-03-18 02:02:00,
2013-03-17 20:12:00,35.0,19.0,-100.00,NW,325,17.0,35.0,51,0.00,,,0.30,14.000000,,2013-03-18 02:12:00,
2013-03-17 20:42:00,34.0,13.0,-100.00,WNW,299,23.0,48.0,41,0.00,,,0.30,0.000000,,2013-03-18 02:42:00,
2013-03-17 20:52:00,34.0,13.0,-100.00,WNW,299,23.0,48.0,41,0.00,,,0.30,0.000000,,2013-03-18 02:52:00,
2013-03-17 21:03:00,34.0,13.0,-100.00,WNW,299,23.0,48.0,41,0.00,,,0.30,0.000000,,2013-03-18 03:03:00,
2013-03-17 21:11:00,34.0,13.0,-100.00,WNW,299,23.0,48.0,41,0.00,,,0.30,0.000000,,2013-03-18 03:11:00,
2013-03-17 21:42:00,33.0,12.0,-100.00,NW,322,13.0,42.0,42,0.00,,,0.30,0.000000,,2013-03-18 03:42:00,
2013-03-17 21:53:00,33.0,12.0,-100.00,NW,322,13.0,42.0,42,0.00,,,0.30,0.000000,,2013-03-18 03:53:00,
2013-03-17 22:03:00,33.0,12.0,-100.00,NW,322,13.0,42.0,42,0.00,,,0.30,0.000000,,2013-03-18 04:03:00,
2013-03-17 22:13:00,33.0,12.0,-100.00,NW,322,13.0,42.0,42,0.00,,,0.30,0.000000,,2013-03-18 04:13:00,
2013-03-17 22:42:00,32.0,10.0,-100.00,NNE,26,4.0,30.0,40,0.00,,,0.30,0.000000,,2013-03-18 04:42:00,
2013-03-17 22:53:00,32.0,10.0,-100.00,NNE,26,4.0,30.0,40,0.00,,,0.30,0.000000,,2013-03-18 04:53:00,
2013-03-17 23:02:00,32.0,10.0,-100.00,NNE,26,4.0,30.0,40,0.00,,,0.30,0.000000,,2013-03-18 05:02:00,
2013-03-17 23:12:00,32.0,10.0,-100.00,NNE,26,4.0,30.0,40,0.00,,,0.30,0.000000,,2013-03-18 05:12:00,
2013-03-17 23:43:00,32.0,10.0,-100.00,WNW,287,2.0,10.0,40,0.00,,,0.30,0.000000,,2013-03-18 05:43:00,
2013-03-17 23:52:00,32.0,10.0,-100.00,WNW,287,2.0,10.0,40,0.00,,,0.30,0.000000,,2013-03-18 05:52:00,